createdAt,value
2019-02-14T00:01:52.221Z,96144.79
2019-02-14T00:04:25.511Z,96146.52
2019-02-14T00:06:58.640Z,96136.58
2019-02-14T00:09:31.785Z,96131.55
2019-02-14T00:12:04.831Z,96134.42
2019-02-14T00:14:37.899Z,96137.42
2019-02-14T00:17:10.977Z,96131.14
2019-02-14T00:19:44.185Z,96128.80
2019-02-14T00:22:17.133Z,96133.33
2019-02-14T00:24:51.689Z,96129.31
2019-02-14T00:27:24.534Z,96125.84
2019-02-14T00:29:57.457Z,96123.89
2019-02-14T00:32:30.548Z,96124.09
2019-02-14T00:35:03.731Z,96120.64
2019-02-14T00:37:36.645Z,96120.94
2019-02-14T00:40:09.900Z,96117.50
2019-02-14T00:42:43.756Z,96120.06
2019-02-14T00:45:16.839Z,96120.87
2019-02-14T00:47:49.699Z,96120.65
2019-02-14T00:50:22.750Z,96127.05
2019-02-14T00:52:56.867Z,96122.90
2019-02-14T00:55:30.950Z,96115.22
2019-02-14T00:58:05.557Z,96109.61
2019-02-14T01:00:38.403Z,96114.55
2019-02-14T01:03:11.332Z,96114.83
2019-02-14T01:05:44.195Z,96111.77
2019-02-14T01:08:17.867Z,96110.50
2019-02-14T01:10:51.057Z,96114.41
2019-02-14T01:13:24.053Z,96110.53
2019-02-14T01:15:57.079Z,96109.61
2019-02-14T01:18:30.090Z,96112.44
2019-02-14T01:21:04.443Z,96103.66
2019-02-14T01:23:37.320Z,96099.49
2019-02-14T01:26:10.320Z,96104.78
2019-02-14T01:28:43.370Z,96096.38
2019-02-14T01:31:16.221Z,96096.53
2019-02-14T01:33:50.408Z,96097.38
2019-02-14T01:36:23.433Z,96102.56
2019-02-14T01:38:56.446Z,96100.55
2019-02-14T01:41:29.650Z,96099.28
2019-02-14T01:44:02.592Z,96098.70
2019-02-14T01:46:35.818Z,96090.27
2019-02-14T01:49:08.575Z,96090.48
2019-02-14T01:51:41.451Z,96090.44
2019-02-14T01:54:15.501Z,96095.30
2019-02-14T01:56:48.363Z,96098.80
2019-02-14T01:59:21.107Z,96094.25
2019-02-14T02:01:53.953Z,96087.48
2019-02-14T02:04:26.830Z,96085.98
2019-02-14T02:06:59.785Z,96088.69
2019-02-14T02:09:32.633Z,96093.30
2019-02-14T02:12:05.710Z,96093.54
2019-02-14T02:14:38.919Z,96086.97
2019-02-14T02:17:11.839Z,96084.50
2019-02-14T02:19:45.916Z,96072.02
2019-02-14T02:22:18.728Z,96083.31
2019-02-14T02:24:52.386Z,96076.56
2019-02-14T02:27:25.264Z,96060.78
2019-02-14T02:29:59.464Z,96063.23
2019-02-14T02:32:32.231Z,96065.44
2019-02-14T02:35:05.584Z,96071.20
2019-02-14T02:37:38.527Z,96071.53
2019-02-14T02:40:12.818Z,96063.34
2019-02-14T02:42:45.833Z,96066.16
2019-02-14T02:45:18.618Z,96070.94
2019-02-14T02:47:51.587Z,96067.88
2019-02-14T02:50:24.576Z,96083.44
2019-02-14T02:52:57.575Z,96090.97
2019-02-14T02:55:30.712Z,96090.30
2019-02-14T02:58:03.692Z,96094.19
2019-02-14T03:00:36.788Z,96087.56
2019-02-14T03:03:09.654Z,96089.04
2019-02-14T03:05:42.561Z,96090.83
2019-02-14T03:08:15.606Z,96089.04
2019-02-14T03:10:48.513Z,96094.23
2019-02-14T03:13:21.250Z,96094.75
2019-02-14T03:15:54.307Z,96097.44
2019-02-14T03:18:27.067Z,96097.41
2019-02-14T03:21:00.058Z,96099.93
2019-02-14T03:23:32.720Z,96095.33
2019-02-14T03:26:05.740Z,96088.82
2019-02-14T03:28:38.894Z,96088.70
2019-02-14T03:31:13.180Z,96082.86
2019-02-14T03:33:45.912Z,96081.91
2019-02-14T03:36:19.509Z,96083.40
2019-02-14T03:38:52.686Z,96080.87
2019-02-14T03:41:25.469Z,96072.20
2019-02-14T03:43:58.396Z,96069.02
2019-02-14T03:46:31.610Z,96070.02
2019-02-14T03:49:05.870Z,96064.48
2019-02-14T03:51:38.713Z,96065.04
2019-02-14T03:54:11.916Z,96076.48
2019-02-14T03:56:44.739Z,96073.04
2019-02-14T03:59:17.650Z,96078.08
2019-02-14T04:01:50.861Z,96073.72
2019-02-14T04:04:23.901Z,96072.78
2019-02-14T04:06:56.818Z,96064.32
2019-02-14T04:09:29.584Z,96063.31
2019-02-14T04:12:02.487Z,96065.98
2019-02-14T04:14:36.036Z,96057.00
2019-02-14T04:17:09.079Z,96070.08
2019-02-14T04:19:41.940Z,96066.88
2019-02-14T04:22:16.315Z,96073.45
2019-02-14T04:24:49.250Z,96069.13
2019-02-14T04:27:22.352Z,96065.19
2019-02-14T04:29:55.541Z,96062.61
2019-02-14T04:32:29.093Z,96064.04
2019-02-14T04:35:02.717Z,96061.48
2019-02-14T04:37:36.062Z,96063.14
2019-02-14T04:40:11.331Z,96061.69
2019-02-14T04:42:44.518Z,96065.22
2019-02-14T04:45:18.014Z,96066.63
2019-02-14T04:47:51.271Z,96062.41
2019-02-14T04:50:24.390Z,96065.03
2019-02-14T04:52:57.571Z,96068.59
2019-02-14T04:55:30.789Z,96075.53
2019-02-14T04:58:04.069Z,96072.31
2019-02-14T05:00:37.024Z,96073.66
2019-02-14T05:03:11.319Z,96075.44
2019-02-14T05:05:44.463Z,96077.38
2019-02-14T05:08:18.685Z,96077.65
2019-02-14T05:10:51.592Z,96081.91
2019-02-14T05:13:25.009Z,96083.50
2019-02-14T05:15:58.040Z,96079.23
2019-02-14T05:18:31.157Z,96080.93
2019-02-14T05:21:04.216Z,96086.72
2019-02-14T05:23:37.098Z,96087.74
2019-02-14T05:26:09.958Z,96097.11
2019-02-14T05:28:43.067Z,96098.28
2019-02-14T05:31:16.059Z,96088.91
2019-02-14T05:33:49.353Z,96094.09
2019-02-14T05:36:22.369Z,96096.82
2019-02-14T05:38:55.471Z,96093.97
2019-02-14T05:41:28.541Z,96092.78
2019-02-14T05:44:01.763Z,96102.83
2019-02-14T05:46:34.992Z,96101.04
2019-02-14T05:49:07.891Z,96109.05
2019-02-14T05:51:41.004Z,96108.33
2019-02-14T05:54:14.431Z,96109.55
2019-02-14T05:56:47.368Z,96110.29
2019-02-14T05:59:20.339Z,96115.83
2019-02-14T06:01:53.537Z,96119.47
2019-02-14T06:16:46.533Z,96096.64
2019-02-14T06:19:19.501Z,96089.48
2019-02-14T06:21:52.538Z,96084.37
2019-02-14T06:24:25.496Z,96080.83
2019-02-14T06:26:58.575Z,96086.63
2019-02-14T06:29:31.383Z,96086.89
2019-02-14T06:32:04.307Z,96088.61
2019-02-14T06:34:38.147Z,96096.42
2019-02-14T06:37:11.092Z,96096.44
2019-02-14T06:39:44.035Z,96086.39
2019-02-14T06:42:17.140Z,96091.89
2019-02-14T06:44:49.953Z,96097.38
2019-02-14T06:47:23.265Z,96091.68
2019-02-14T06:49:56.115Z,96087.73
2019-02-14T06:52:29.013Z,96080.02
2019-02-14T06:55:02.245Z,96088.29
2019-02-14T06:57:35.297Z,96087.48
2019-02-14T07:00:10.210Z,96087.11
2019-02-14T07:02:43.648Z,96083.77
2019-02-14T07:05:17.672Z,96082.88
2019-02-14T07:07:50.995Z,96082.39
2019-02-14T07:10:24.557Z,96080.27
2019-02-14T07:12:57.497Z,96072.93
2019-02-14T07:15:30.450Z,96067.88
2019-02-14T07:18:03.519Z,96065.98
2019-02-14T07:20:36.472Z,96062.77
2019-02-14T07:23:10.371Z,96063.29
2019-02-14T07:25:43.278Z,96064.55
2019-02-14T07:28:16.297Z,96061.86
2019-02-14T07:30:49.330Z,96050.41
2019-02-14T07:33:22.595Z,96049.95
2019-02-14T07:35:55.462Z,96045.77
2019-02-14T07:38:28.420Z,96040.00
2019-02-14T07:41:02.774Z,96038.20
2019-02-14T07:43:35.964Z,96032.47
2019-02-14T07:46:10.384Z,96025.30
2019-02-14T07:48:43.453Z,96026.52
2019-02-14T07:51:16.527Z,96023.11
2019-02-14T07:53:49.741Z,96020.50
2019-02-14T07:56:22.664Z,96020.79
2019-02-14T07:58:55.503Z,96015.46
2019-02-14T08:01:28.593Z,96005.45
2019-02-14T08:04:01.447Z,96010.72
2019-02-14T08:06:34.388Z,95995.64
2019-02-14T08:09:07.994Z,96003.10
2019-02-14T08:11:41.238Z,96005.91
2019-02-14T08:14:14.456Z,96001.42
2019-02-14T08:16:47.208Z,95996.03
2019-02-14T08:19:20.044Z,95993.41
2019-02-14T08:21:53.203Z,95985.95
2019-02-14T08:24:26.418Z,95988.58
2019-02-14T08:26:59.001Z,95985.18
2019-02-14T08:29:32.072Z,95985.41
2019-02-14T08:32:05.300Z,95983.43
2019-02-14T08:34:38.118Z,95978.58
2019-02-14T08:37:11.223Z,95972.65
2019-02-14T08:39:44.709Z,95982.58
2019-02-14T08:42:17.592Z,95971.22
2019-02-14T08:44:50.816Z,95977.64
2019-02-14T08:47:23.628Z,95974.36
2019-02-14T08:49:56.700Z,95968.59
2019-02-14T08:52:30.310Z,95961.67
2019-02-14T08:55:04.708Z,95954.16
2019-02-14T08:57:37.712Z,95961.13
2019-02-14T09:00:12.803Z,95954.22
2019-02-14T09:02:45.765Z,95958.92
2019-02-14T09:05:18.704Z,95952.64
2019-02-14T09:07:54.814Z,95952.59
2019-02-14T09:10:26.386Z,95952.67
2019-02-14T09:12:59.414Z,95946.56
2019-02-14T09:15:32.405Z,95935.89
2019-02-14T09:18:05.540Z,95933.97
2019-02-14T09:20:38.548Z,95930.22
2019-02-14T09:23:11.809Z,95933.86
2019-02-14T09:25:44.600Z,95937.75
2019-02-14T09:28:17.349Z,95934.25
2019-02-14T09:30:50.260Z,95914.98
2019-02-14T09:33:23.292Z,95924.42
2019-02-14T09:35:56.102Z,95920.58
2019-02-14T09:38:29.067Z,95913.28
2019-02-14T09:41:01.953Z,95910.16
2019-02-14T09:43:35.000Z,95911.38
2019-02-14T09:46:08.172Z,95898.22
2019-02-14T09:48:41.107Z,95901.23
2019-02-14T09:51:14.386Z,95897.78
2019-02-14T09:53:47.266Z,95888.63
2019-02-14T09:56:20.449Z,95890.83
2019-02-14T09:58:53.471Z,95887.28
2019-02-14T10:01:26.386Z,95881.81
2019-02-14T10:03:59.576Z,95880.85
2019-02-14T10:06:36.788Z,95884.69
2019-02-14T10:09:09.363Z,95873.32
2019-02-14T10:11:42.336Z,95867.64
2019-02-14T10:14:15.586Z,95873.78
2019-02-14T10:16:48.545Z,95868.08
2019-02-14T10:19:28.680Z,95861.53
2019-02-14T10:22:09.772Z,95860.52
2019-02-14T10:24:52.609Z,95845.75
2019-02-14T10:27:31.911Z,95837.92
2019-02-14T10:30:17.746Z,95837.64
2019-02-14T10:32:57.550Z,95826.33
2019-02-14T10:35:35.765Z,95826.13
2019-02-14T10:38:21.885Z,95825.02
2019-02-14T10:40:57.361Z,95810.23
2019-02-14T10:43:37.002Z,95801.97
2019-02-14T10:46:17.466Z,95801.63
2019-02-14T10:48:54.473Z,95798.15
2019-02-14T10:51:34.845Z,95803.89
2019-02-14T10:54:14.642Z,95789.02
2019-02-14T10:56:52.336Z,95798.45
2019-02-14T10:59:29.702Z,95790.66
2019-02-14T11:02:05.416Z,95788.41
2019-02-14T11:04:47.086Z,95778.87
2019-02-14T11:07:28.989Z,95784.58
2019-02-14T11:10:07.672Z,95775.54
2019-02-14T11:12:48.262Z,95783.89
2019-02-14T11:15:28.556Z,95785.16
2019-02-14T11:18:06.003Z,95782.11
2019-02-14T11:20:48.752Z,95783.64
2019-02-14T11:23:27.737Z,95783.45
2019-02-14T11:26:12.860Z,95788.88
2019-02-14T11:28:57.350Z,95787.06
2019-02-14T11:31:41.669Z,95783.14
2019-02-14T11:34:26.407Z,95774.23
2019-02-14T11:37:07.623Z,95781.45
2019-02-14T11:39:52.426Z,95776.05
2019-02-14T11:42:33.036Z,95775.38
2019-02-14T11:45:15.602Z,95774.74
2019-02-14T11:47:57.564Z,95755.45
2019-02-14T11:50:32.639Z,95758.52
2019-02-14T11:53:13.918Z,95754.50
2019-02-14T11:55:39.869Z,95752.19
2019-02-14T11:58:12.797Z,95744.31
2019-02-14T12:00:45.829Z,95736.84
2019-02-14T12:03:18.581Z,95746.12
2019-02-14T12:05:51.403Z,95736.47
2019-02-14T12:08:24.204Z,95729.69
2019-02-14T12:10:56.936Z,95731.52
2019-02-14T12:13:29.864Z,95728.78
2019-02-14T12:16:02.650Z,95729.50
2019-02-14T12:18:35.489Z,95732.00
2019-02-14T12:21:08.397Z,95730.93
2019-02-14T12:23:41.142Z,95731.73
2019-02-14T12:26:15.090Z,95724.52
2019-02-14T12:28:48.211Z,95733.01
2019-02-14T12:31:21.030Z,95729.91
2019-02-14T12:33:54.172Z,95732.48
2019-02-14T12:36:28.765Z,95733.23
2019-02-14T12:39:08.911Z,95740.52
2019-02-14T12:41:36.228Z,95724.91
2019-02-14T12:44:10.102Z,95730.06
2019-02-14T12:46:42.835Z,95722.98
2019-02-14T12:49:15.789Z,95726.86
2019-02-14T12:51:48.807Z,95736.38
2019-02-14T12:54:21.673Z,95730.53
2019-02-14T12:56:54.375Z,95722.09
2019-02-14T12:59:27.240Z,95729.22
2019-02-14T13:02:00.005Z,95731.28
2019-02-14T13:04:32.875Z,95740.73
2019-02-14T13:07:05.737Z,95729.70
2019-02-14T13:09:38.895Z,95724.22
2019-02-14T13:12:12.011Z,95731.84
2019-02-14T13:15:05.473Z,95730.80
2019-02-14T13:17:38.447Z,95724.56
2019-02-14T13:20:11.478Z,95721.35
2019-02-14T13:22:44.327Z,95712.52
2019-02-14T13:25:17.534Z,95722.05
2019-02-14T13:27:50.451Z,95722.28
2019-02-14T13:30:24.652Z,95716.00
2019-02-14T13:32:57.566Z,95724.68
2019-02-14T13:35:30.491Z,95714.62
2019-02-14T13:38:03.602Z,95720.73
2019-02-14T13:40:36.810Z,95706.99
2019-02-14T13:43:10.592Z,95705.79
2019-02-14T13:45:43.731Z,95713.97
2019-02-14T13:48:16.436Z,95711.22
2019-02-14T13:50:49.460Z,95707.58
2019-02-14T13:53:22.373Z,95708.72
2019-02-14T13:55:56.027Z,95713.71
2019-02-14T13:58:29.207Z,95715.44
2019-02-14T14:01:03.400Z,95707.45
2019-02-14T14:03:36.470Z,95712.72
2019-02-14T14:06:09.426Z,95713.74
2019-02-14T14:08:42.336Z,95712.13
2019-02-14T14:11:15.532Z,95711.59
2019-02-14T14:13:48.972Z,95711.59
2019-02-14T14:16:21.980Z,95704.16
2019-02-14T14:18:54.965Z,95702.61
2019-02-14T14:21:27.958Z,95701.06
2019-02-14T14:24:01.057Z,95700.97
2019-02-14T14:26:34.149Z,95703.16
2019-02-14T14:29:07.088Z,95704.52
2019-02-14T14:31:40.291Z,95699.22
2019-02-14T14:34:13.430Z,95697.28
2019-02-14T14:36:46.687Z,95696.99
2019-02-14T14:39:19.972Z,95701.38
2019-02-14T14:41:53.159Z,95695.22
2019-02-14T14:44:45.263Z,95701.20
2019-02-14T14:47:24.167Z,95697.84
2019-02-14T14:49:57.084Z,95704.09
2019-02-14T14:52:30.192Z,95699.16
2019-02-14T14:55:03.427Z,95695.67
2019-02-14T14:57:36.214Z,95691.12
2019-02-14T15:00:09.881Z,95695.68
2019-02-14T15:02:42.933Z,95695.89
2019-02-14T15:05:16.084Z,95707.73
2019-02-14T15:07:48.991Z,95709.32
2019-02-14T15:10:22.102Z,95702.55
2019-02-14T15:12:55.362Z,95704.50
2019-02-14T15:15:28.398Z,95704.67
2019-02-14T15:18:01.431Z,95714.89
2019-02-14T15:20:34.605Z,95720.25
2019-02-14T15:23:07.725Z,95724.52
2019-02-14T15:25:41.198Z,95722.39
2019-02-14T15:28:14.102Z,95724.05
2019-02-14T15:30:47.349Z,95725.18
2019-02-14T15:33:20.413Z,95734.53
2019-02-14T15:35:53.891Z,95734.06
2019-02-14T15:38:27.229Z,95724.50
2019-02-14T15:41:00.535Z,95726.63
2019-02-14T15:43:34.975Z,95728.42
2019-02-14T15:46:08.013Z,95726.77
2019-02-14T15:48:41.053Z,95737.52
2019-02-14T15:51:16.209Z,95740.77
2019-02-14T15:53:49.226Z,95733.33
2019-02-14T15:56:22.159Z,95732.72
2019-02-14T15:58:57.396Z,95734.48
2019-02-14T16:01:30.707Z,95733.98
2019-02-14T16:04:04.973Z,95728.04
2019-02-14T16:06:38.341Z,95726.41
2019-02-14T16:09:12.339Z,95726.56
2019-02-14T16:11:46.100Z,95738.88
2019-02-14T16:14:20.932Z,95733.70
2019-02-14T16:16:55.374Z,95740.50
2019-02-14T16:19:28.325Z,95740.00
2019-02-14T16:22:01.649Z,95737.62
2019-02-14T16:24:34.786Z,95738.27
2019-02-14T16:27:07.892Z,95743.16
2019-02-14T16:29:42.190Z,95741.99
2019-02-14T16:32:15.373Z,95736.67
2019-02-14T16:34:48.545Z,95740.02
2019-02-14T16:37:21.735Z,95744.73
2019-02-14T16:39:56.866Z,95746.20
2019-02-14T16:42:30.944Z,95748.78
2019-02-14T16:45:04.171Z,95754.33
2019-02-14T16:47:37.965Z,95751.92
2019-02-14T16:50:12.759Z,95754.20
2019-02-14T16:52:46.029Z,95754.53
2019-02-14T16:55:20.904Z,95749.52
2019-02-14T16:57:54.340Z,95753.20
2019-02-14T17:00:27.627Z,95753.72
2019-02-14T17:03:00.905Z,95750.80
2019-02-14T17:05:33.937Z,95748.37
2019-02-14T17:08:07.089Z,95751.74
2019-02-14T17:10:40.504Z,95750.97
2019-02-14T17:13:13.906Z,95747.56
2019-02-14T17:15:47.250Z,95745.47
2019-02-14T17:18:20.701Z,95748.56
2019-02-14T17:20:57.270Z,95757.73
2019-02-14T17:23:30.339Z,95749.70
2019-02-14T17:26:03.855Z,95747.61
2019-02-14T17:28:37.099Z,95749.39
2019-02-14T17:31:10.498Z,95752.42
2019-02-14T17:33:43.864Z,95744.66
2019-02-14T17:36:17.996Z,95749.50
2019-02-14T17:38:51.381Z,95736.90
2019-02-14T17:41:24.656Z,95728.64
2019-02-14T17:43:58.036Z,95731.56
2019-02-14T17:46:31.838Z,95734.82
2019-02-14T17:49:05.233Z,95727.39
2019-02-14T17:51:38.943Z,95723.17
2019-02-14T17:54:12.481Z,95719.97
2019-02-14T17:56:47.074Z,95720.77
2019-02-14T17:59:20.420Z,95713.16
2019-02-14T18:01:55.410Z,95720.91
2019-02-14T18:04:28.591Z,95713.95
2019-02-14T18:07:01.813Z,95706.95
2019-02-14T18:09:34.976Z,95696.92
2019-02-14T18:12:08.225Z,95701.01
2019-02-14T18:14:41.348Z,95692.77
2019-02-14T18:17:15.903Z,95693.56
2019-02-14T18:19:49.300Z,95686.33
2019-02-14T18:22:22.642Z,95686.50
2019-02-14T18:24:55.701Z,95683.75
2019-02-14T18:27:28.900Z,95696.36
2019-02-14T18:30:03.640Z,95698.48
2019-02-14T18:32:40.305Z,95693.94
2019-02-14T18:35:13.486Z,95697.98
2019-02-14T18:37:46.875Z,95709.63
2019-02-14T18:40:20.781Z,95706.72
2019-02-14T18:42:54.004Z,95702.98
2019-02-14T18:45:28.180Z,95702.17
2019-02-14T18:48:01.467Z,95702.30
2019-02-14T18:50:36.312Z,95709.59
2019-02-14T18:53:09.685Z,95708.50
2019-02-14T18:55:42.822Z,95704.13
2019-02-14T18:58:25.765Z,95704.79
2019-02-14T19:00:51.235Z,95711.25
2019-02-14T19:03:25.053Z,95705.91
2019-02-14T19:05:58.205Z,95703.32
2019-02-14T19:08:31.618Z,95702.52
2019-02-14T19:11:14.709Z,95703.97
2019-02-14T19:13:41.485Z,95706.38
2019-02-14T19:16:14.708Z,95708.16
2019-02-14T19:18:49.450Z,95712.17
2019-02-14T19:21:22.635Z,95706.84
2019-02-14T19:23:55.680Z,95701.36
2019-02-14T19:26:30.417Z,95698.30
2019-02-14T19:29:03.717Z,95694.03
2019-02-14T19:31:36.897Z,95696.16
2019-02-14T19:34:10.039Z,95705.75
2019-02-14T19:36:43.918Z,95697.16
2019-02-14T19:39:16.989Z,95694.56
2019-02-14T19:41:50.711Z,95686.64
2019-02-14T19:44:24.367Z,95680.97
2019-02-14T19:46:57.944Z,95676.64
2019-02-14T19:49:31.520Z,95679.67
2019-02-14T19:52:05.419Z,95680.34
2019-02-14T19:54:39.036Z,95686.17
2019-02-14T19:57:14.398Z,95676.62
2019-02-14T19:59:48.023Z,95667.55
2019-02-14T20:02:21.950Z,95671.58
2019-02-14T20:04:57.214Z,95675.29
2019-02-14T20:07:31.224Z,95670.63
2019-02-14T20:10:04.902Z,95665.23
2019-02-14T20:12:38.447Z,95665.59
2019-02-14T20:15:15.261Z,95674.19
2019-02-14T20:17:48.531Z,95676.47
2019-02-14T20:20:22.169Z,95678.55
2019-02-14T20:22:55.492Z,95677.42
2019-02-14T20:25:29.458Z,95676.74
2019-02-14T20:28:02.813Z,95674.50
2019-02-14T20:30:36.592Z,95675.95
2019-02-14T20:33:10.327Z,95678.08
2019-02-14T20:35:44.039Z,95686.02
2019-02-14T20:38:17.506Z,95683.58
2019-02-14T20:40:51.009Z,95686.68
2019-02-14T20:43:24.815Z,95679.54
2019-02-14T20:45:58.549Z,95670.98
2019-02-14T20:48:31.972Z,95670.98
2019-02-14T20:51:05.584Z,95678.89
2019-02-14T20:53:38.984Z,95679.54
2019-02-14T20:56:13.078Z,95680.51
2019-02-14T20:58:46.782Z,95681.13
2019-02-14T21:01:20.377Z,95681.75
2019-02-14T21:03:54.154Z,95672.87
2019-02-14T21:06:27.748Z,95670.42
2019-02-14T21:09:01.179Z,95670.27
2019-02-14T21:11:34.677Z,95668.97
2019-02-14T21:14:08.457Z,95661.05
2019-02-14T21:16:42.185Z,95669.11
2019-02-14T21:19:15.902Z,95660.05
2019-02-14T21:21:49.549Z,95664.23
2019-02-14T21:24:22.813Z,95666.06
2019-02-14T21:26:56.727Z,95661.73
2019-02-14T21:29:30.377Z,95664.13
2019-02-14T21:32:03.722Z,95655.42
2019-02-14T21:34:57.483Z,95662.67
2019-02-14T21:37:31.466Z,95661.50
2019-02-14T21:40:05.991Z,95656.95
2019-02-14T21:42:40.479Z,95653.55
2019-02-14T21:45:14.628Z,95645.97
2019-02-14T21:47:48.093Z,95637.25
2019-02-14T21:50:21.115Z,95633.48
2019-02-14T21:52:54.367Z,95629.91
2019-02-14T21:55:27.357Z,95628.42
2019-02-14T21:58:04.561Z,95637.50
2019-02-14T22:00:40.325Z,95634.48
2019-02-14T22:03:13.790Z,95634.48
2019-02-14T22:05:46.701Z,95632.70
2019-02-14T22:08:19.989Z,95631.86
2019-02-14T22:10:53.044Z,95633.14
2019-02-14T22:13:26.244Z,95633.80
2019-02-14T22:15:59.191Z,95626.69
2019-02-14T22:18:32.212Z,95627.50
2019-02-14T22:21:05.681Z,95621.84
2019-02-14T22:23:38.645Z,95633.19
2019-02-14T22:26:11.717Z,95621.81
2019-02-14T22:28:45.063Z,95617.48
2019-02-14T22:31:17.960Z,95618.33
2019-02-14T22:33:50.850Z,95614.98
2019-02-14T22:36:23.868Z,95618.09
2019-02-14T22:38:56.934Z,95622.28
2019-02-14T22:41:30.041Z,95619.20
2019-02-14T22:44:03.142Z,95613.03
2019-02-14T22:46:36.887Z,95619.03
2019-02-14T22:49:10.245Z,95605.61
2019-02-14T22:51:43.488Z,95612.70
2019-02-14T22:54:16.653Z,95610.48
2019-02-14T22:56:49.797Z,95620.36
2019-02-14T22:59:22.682Z,95613.14
2019-02-14T23:01:55.750Z,95612.01
2019-02-14T23:04:28.846Z,95608.12
2019-02-14T23:07:02.149Z,95607.78
2019-02-14T23:09:35.238Z,95607.73
2019-02-14T23:12:08.359Z,95608.56
2019-02-14T23:14:41.511Z,95605.13
2019-02-14T23:17:14.628Z,95606.47
2019-02-14T23:19:48.167Z,95608.90
2019-02-14T23:22:21.378Z,95604.07
2019-02-14T23:24:54.352Z,95612.98
2019-02-14T23:27:27.406Z,95615.77
2019-02-14T23:30:00.494Z,95606.66
2019-02-14T23:32:33.807Z,95607.98
2019-02-14T23:35:06.983Z,95607.46
2019-02-14T23:37:40.194Z,95612.02
2019-02-14T23:40:13.147Z,95603.63
2019-02-14T23:42:46.235Z,95602.52
2019-02-14T23:45:19.367Z,95610.58
2019-02-14T23:47:52.159Z,95607.83
2019-02-14T23:50:25.195Z,95608.78
2019-02-14T23:52:58.275Z,95612.02
2019-02-14T23:55:31.252Z,95609.59
2019-02-14T23:58:04.389Z,95611.52
